메인 페이지
METAR-TAF:

METAR-TAF

공항 :

팔라우 국제공항

코로르, 바벨다오브 섬, 팔라우

위도: 07-22N, 경도: 134-32E, 고도: 54m

현재 날씨관측

예보는 20 시간 53분 전, 00:00시(UTC)에 발표되었습니다.
4kt
온도 26°C
습도 89%
기압 1009 hPa
시정: 24.1km
고도 1600ft 상공 구름 보통
고도 30000ft 상공 구름 많음

METAR: PTRO 201890Z 27004KT 15SM SCT016 BKN300 26/24 A2979

시각: 05:53 (20:53 UTC)

예보

예보는 3 시간 8분 전, 17:45시(UTC)에 발표되었습니다.
예보 대상 시간: 20일 18시부터 21일 18시까지 (UTC)
8kt
시정: 10km
고도 1600ft 상공 구름 보통
고도 6000ft 상공 구름 보통
고도 12000ft 상공 구름 많음
시계 내 소나기

TAF: PTRO 201745Z 2018/2118 26008KT P6SM VCSH SCT016 SCT060 BKN120

4,000개 이상의 공항 관측 자료 및 예보 (METAR 및 TAF 보고).

지도상에서 검색 가능한 기상관측소가 노란 점과 빨간 점으로 표시되어 있습니다.

기상관측소 명을 보려면 표시 위로 마우스를 이동하세요.

날씨 관측과 예보를 보려면 클릭하세요.

지도 변경 : 확대하려면 엑스 표시가 있는 녹색 버튼, 축소하려면 빼기 표시가 있는 녹색 버튼, 다음 페이지의 지도를 보려면 녹색 화살표를 클릭하세요.


METAR-TAF: